• Join FlightAware (Why Join?)
  • Login
  • US Flag 
09:02AM EDT


 

Airport Tracker/Info


-or-


 

Live Flight TrackerFlight Track Log ✈ UAL5419 ✈ 25-Apr-2013 ✈ KMKE - KORD

Flight Track Log - Related Links

Times and Time Zones

All times are in EDT time to prevent confusion due to time zone crossing. See the UAL5419 flight status page for this flight to view local times or setup timezone preferences in your user account.

Time Position Orientation Groundspeed Altitude Reporting Facility
EDT Latitude Longitude Course Direction KTS MPH feet Rate Location/Type
02:51PM 42.9333 -87.9167 189° South 176 203 1,500  Level KMKE
02:52PM 42.9000 -87.9667 228° Southwest 229 264 3,700 2,700 Climbing KMKE
02:53PM 42.8500 -87.9000 136° Southeast 260 299 6,900 2,520 Climbing KMKE
02:53PM 42.8367 -87.8828 137° Southeast 249 287 7,000 120 Climbing Chicago Center
02:54PM 42.5537 -87.9010 182° South  Level Estimated
02:54PM 42.7897 -87.8022 128° Southeast 268 308 7,100  Level Chicago Center
02:55PM 42.4554 -87.9020 185° South  Level Estimated
02:55PM 42.7433 -87.7208 128° Southeast 271 312 7,100  Level Chicago Center
02:56PM 42.3583 -87.9230 189° South  Level FlightAware Approximate
02:56PM 42.6944 -87.6411 130° Southeast 272 313 7,100  Level Chicago Center
02:57PM 42.6033 -87.6294 175° South 276 318 7,000 -60 Descending Chicago Center
02:58PM 42.5283 -87.6203 175° South 271 312 7,000  Level Chicago Center
02:59PM 42.4519 -87.6078 173° South 275 316 7,000  Level Chicago Center
03:00PM 42.3781 -87.5967 174° South 269 310 7,000 -360 Level Chicago Center
03:01PM 42.2933 -87.5856 174° South 274 315 6,300 -540 Descending Chicago Center
03:02PM 42.2189 -87.5742 174° South 272 313 5,900 -660 Descending Chicago Center
03:03PM 42.1464 -87.5614 173° South 267 307 5,000 -540 Descending Chicago Center
03:04PM 42.0667 -87.5500 174° South 242 278 4,900 -600 Descending Chicago TRACON
03:05PM 42.0333 -87.6000 228° Southwest 206 237 3,900 -600 Descending Chicago TRACON
03:06PM 42.0000 -87.6667 236° Southwest 197 227 3,700 -240 Descending Chicago TRACON